Time;durP1;ratioP1;P1;durP2;ratioP2;P2;SDS_P1;SDS_P2;PMS_P1;PMS_P2;Temp;Humidity;BMP_temperature;BMP_pressure;BME280_temperature;BME280_humidity;BME280_pressure;Samples;Min_cycle;Max_cycle;Signal;HPM_P1;HPM_P2
2021/10/19 00:01:57;;;;;;;;;11.00;11.00;;;;;16.64;76.98;100789.81;5016979;28;45185;-79
2021/10/19 00:04:23;;;;;;;;;10.00;9.00;;;;;16.65;76.83;100787.00;5016919;28;45259;-79
2021/10/19 00:06:49;;;;;;;;;12.00;10.25;;;;;16.71;76.44;100796.44;5016875;28;45284;-79
2021/10/19 00:09:14;;;;;;;;;10.00;9.25;;;;;16.67;77.01;100795.78;5016954;28;45227;-79
2021/10/19 00:11:40;;;;;;;;;9.75;8.75;;;;;16.69;76.54;100793.88;5016911;28;45236;-79
2021/10/19 00:14:05;;;;;;;;;12.00;9.50;;;;;16.71;76.37;100802.63;5017005;28;45244;-79
2021/10/19 00:16:31;;;;;;;;;10.25;10.25;;;;;16.71;75.96;100791.91;5015646;28;45560;-79
2021/10/19 00:18:56;;;;;;;;;9.25;9.25;;;;;16.74;76.62;100801.56;5017106;28;45259;-79
2021/10/19 00:21:22;;;;;;;;;12.00;10.75;;;;;16.72;76.24;100796.31;5017296;28;45269;-79
2021/10/19 00:23:47;;;;;;;;;10.50;10.25;;;;;16.70;75.88;100781.28;5016486;28;45291;-79
2021/10/19 00:26:12;;;;;;;;;9.00;9.00;;;;;16.74;76.09;100782.75;5016952;28;45242;-79
2021/10/19 00:28:39;;;;;;;;;11.00;10.50;;;;;16.74;75.83;100775.56;5016680;28;45189;-79
2021/10/19 00:31:04;;;;;;;;;11.75;11.00;;;;;16.74;75.99;100767.53;5016839;28;45277;-79
2021/10/19 00:33:30;;;;;;;;;12.50;9.25;;;;;16.68;75.91;100754.56;5016632;28;45170;-79
2021/10/19 00:35:55;;;;;;;;;11.25;10.50;;;;;16.76;75.65;100769.22;5016397;28;46056;-79
2021/10/19 00:38:20;;;;;;;;;11.50;10.00;;;;;16.75;75.50;100765.69;5016614;28;45402;-79
2021/10/19 00:40:45;;;;;;;;;8.75;8.75;;;;;16.76;75.41;100778.13;5016911;28;45221;-79
2021/10/19 00:43:11;;;;;;;;;12.25;10.00;;;;;16.76;75.68;100772.78;5016357;28;45195;-79
2021/10/19 00:45:36;;;;;;;;;10.75;9.00;;;;;16.76;75.96;100788.88;5016677;28;46091;-79
2021/10/19 00:48:05;;;;;;;;;9.75;9.75;;;;;16.62;76.10;100773.00;5016627;28;45114;-79
2021/10/19 00:50:30;;;;;;;;;11.00;8.75;;;;;16.75;75.62;100795.22;5015826;28;45310;-79
2021/10/19 00:52:57;;;;;;;;;11.25;10.00;;;;;16.77;75.82;100804.00;5016130;28;45216;-79
2021/10/19 00:55:23;;;;;;;;;10.75;9.25;;;;;16.74;76.20;100799.75;5015701;28;45378;-79
2021/10/19 00:57:50;;;;;;;;;9.75;9.75;;;;;16.77;75.84;100809.38;5014735;28;45527;-79
2021/10/19 01:00:15;;;;;;;;;11.75;8.50;;;;;16.76;76.27;100806.81;5016074;28;45152;-79
2021/10/19 01:02:43;;;;;;;;;9.00;9.00;;;;;16.77;76.16;100812.03;5016205;28;45143;-79
2021/10/19 01:05:09;;;;;;;;;9.25;8.75;;;;;16.78;75.92;100807.56;5015912;28;46514;-79
2021/10/19 01:07:34;;;;;;;;;12.25;11.25;;;;;16.78;76.26;100807.56;4997965;28;45165;-79
2021/10/19 01:10:03;;;;;;;;;10.50;8.25;;;;;16.77;76.06;100812.03;4998463;28;45287;-79
2021/10/19 01:12:28;;;;;;;;;9.25;9.00;;;;;16.74;76.24;100812.28;5016461;28;45353;-79
2021/10/19 01:14:54;;;;;;;;;11.75;10.50;;;;;16.78;76.64;100815.59;5014559;28;45275;-79
2021/10/19 01:17:19;;;;;;;;;11.25;11.00;;;;;16.72;76.73;100793.63;5015864;28;45517;-79
2021/10/19 01:19:49;;;;;;;;;12.50;10.50;;;;;16.77;76.60;100811.22;5016165;28;45251;-79
2021/10/19 01:22:15;;;;;;;;;9.50;9.50;;;;;16.78;77.06;100802.19;5015647;28;45226;-79
2021/10/19 01:24:40;;;;;;;;;9.75;8.75;;;;;16.78;77.17;100797.66;5015580;28;46130;-79
2021/10/19 01:27:06;;;;;;;;;11.00;10.00;;;;;16.79;77.17;100795.81;5017182;28;45207;-79
2021/10/19 01:29:31;;;;;;;;;10.75;8.50;;;;;16.79;77.14;100796.69;5019306;28;45301;-79
2021/10/19 01:31:58;;;;;;;;;10.75;10.75;;;;;16.79;77.09;100790.44;5018752;28;45389;-79
2021/10/19 01:34:23;;;;;;;;;11.00;11.00;;;;;16.75;76.78;100781.78;5018563;28;45530;-79
2021/10/19 01:36:49;;;;;;;;;8.25;7.50;;;;;16.79;77.38;100790.44;5019051;28;45243;-79
2021/10/19 01:39:15;;;;;;;;;9.25;9.25;;;;;16.74;77.31;100788.13;5019880;28;45228;-79
2021/10/19 01:41:46;;;;;;;;;13.75;12.00;;;;;16.78;77.30;100808.41;5019797;28;45228;-79
2021/10/19 01:44:12;;;;;;;;;13.50;11.25;;;;;16.78;77.94;100799.50;5019523;28;45316;-79
2021/10/19 01:46:37;;;;;;;;;12.25;8.50;;;;;16.75;77.67;100803.28;5017769;28;45180;-78
2021/10/19 01:49:02;;;;;;;;;8.00;8.00;;;;;16.77;77.37;100797.78;5019020;28;45208;-78
2021/10/19 01:51:28;;;;;;;;;13.00;11.50;;;;;16.78;77.54;100804.88;5019362;28;45232;-79
2021/10/19 01:53:54;;;;;;;;;11.75;9.00;;;;;16.78;77.63;100808.41;5018538;28;45255;-78
2021/10/19 01:56:19;;;;;;;;;11.00;9.50;;;;;16.78;77.61;100808.41;5019295;28;45236;-79
2021/10/19 01:58:44;;;;;;;;;12.25;10.50;;;;;16.78;77.80;100808.41;5019181;28;45117;-79
2021/10/19 02:01:10;;;;;;;;;12.50;8.75;;;;;16.79;77.38;100803.88;5018012;28;45058;-79
2021/10/19 02:03:35;;;;;;;;;9.25;9.00;;;;;16.78;77.77;100800.34;5018634;28;45449;-79
2021/10/19 02:06:00;;;;;;;;;14.00;12.25;;;;;16.79;77.57;100807.44;5018310;28;45255;-78
2021/10/19 02:08:26;;;;;;;;;11.75;9.75;;;;;16.75;78.51;100795.22;5017576;28;45120;-79
2021/10/19 02:10:51;;;;;;;;;11.00;11.00;;;;;16.79;77.92;100810.13;5018557;28;45333;-79
2021/10/19 02:13:17;;;;;;;;;11.00;9.25;;;;;16.81;78.02;100801.94;5018065;28;45480;-78
2021/10/19 02:15:42;;;;;;;;;10.50;10.00;;;;;16.80;78.55;100795.72;5018577;28;45303;-78
2021/10/19 02:18:09;;;;;;;;;11.75;10.00;;;;;16.80;77.94;100797.53;5018597;28;45232;-79
2021/10/19 02:20:35;;;;;;;;;16.25;9.50;;;;;16.79;77.70;100799.38;5000414;28;45136;-78
2021/10/19 02:23:01;;;;;;;;;13.50;10.50;;;;;16.80;78.27;100794.84;5018481;28;45255;-79
2021/10/19 02:25:27;;;;;;;;;13.25;11.00;;;;;16.80;78.23;100797.53;5018324;28;45200;-78
2021/10/19 02:27:53;;;;;;;;;12.75;10.00;;;;;16.80;78.40;100792.16;5018099;28;45258;-79
2021/10/19 02:30:19;;;;;;;;;10.25;8.75;;;;;16.80;78.26;100802.91;5018658;28;45259;-78
2021/10/19 02:32:44;;;;;;;;;11.25;11.00;;;;;16.78;78.30;100794.97;5018329;28;45220;-78
2021/10/19 02:35:11;;;;;;;;;14.50;10.50;;;;;16.79;78.76;100791.31;5018483;28;45215;-78
2021/10/19 02:37:38;;;;;;;;;12.50;11.25;;;;;16.79;78.36;100787.75;5018506;28;45184;-79
2021/10/19 02:40:04;;;;;;;;;13.00;10.00;;;;;16.79;78.07;100791.31;4999960;28;45269;-78
2021/10/19 02:42:30;;;;;;;;;15.00;9.00;;;;;16.79;78.47;100787.75;5018444;28;46095;-79
2021/10/19 02:44:55;;;;;;;;;11.50;11.00;;;;;16.79;78.21;100783.25;5018036;28;45269;-78
2021/10/19 02:47:20;;;;;;;;;8.67;8.67;;;;;16.74;78.33;100774.69;5018352;28;45345;-79
2021/10/19 02:49:46;;;;;;;;;12.50;10.00;;;;;16.79;78.12;100779.72;5018467;28;45160;-78
2021/10/19 02:52:11;;;;;;;;;11.50;11.00;;;;;16.82;78.37;100782.19;5016995;28;46731;-78
2021/10/19 02:54:37;;;;;;;;;9.00;7.00;;;;;16.79;79.08;100777.03;5016937;28;45284;-78
2021/10/19 02:57:03;;;;;;;;;10.00;9.00;;;;;16.79;78.72;100766.28;5017878;28;45232;-78
2021/10/19 02:59:28;;;;;;;;;10.00;9.25;;;;;16.80;78.34;100782.31;5017535;28;45303;-78
2021/10/19 03:01:53;;;;;;;;;14.33;13.33;;;;;16.76;78.39;100771.91;5016859;28;46088;-80
2021/10/19 03:04:19;;;;;;;;;11.00;9.00;;;;;16.79;78.40;100787.75;5015294;28;45220;-79
2021/10/19 03:06:44;;;;;;;;;12.50;10.25;;;;;16.77;78.86;100787.03;5017553;28;45190;-79
2021/10/19 03:09:09;;;;;;;;;10.25;9.00;;;;;16.74;78.81;100780.06;5017837;28;45279;-79
2021/10/19 03:11:35;;;;;;;;;10.75;7.75;;;;;16.74;78.40;100778.25;5016969;28;46484;-79
2021/10/19 03:14:00;;;;;;;;;17.50;12.50;;;;;16.74;78.67;100785.44;5017411;28;45199;-79
2021/10/19 03:16:26;;;;;;;;;14.50;10.50;;;;;16.74;78.81;100783.63;5017157;28;45280;-79
2021/10/19 03:18:51;;;;;;;;;15.50;11.75;;;;;16.74;78.53;100783.63;5017768;28;45210;-79
2021/10/19 03:21:17;;;;;;;;;11.50;8.25;;;;;16.76;78.58;100783.50;5017442;28;45861;-79
2021/10/19 03:23:42;;;;;;;;;12.75;11.00;;;;;16.75;78.74;100787.16;5017706;28;45278;-79
2021/10/19 03:26:07;;;;;;;;;13.25;10.50;;;;;16.77;78.85;100785.19;5017712;28;45171;-79
2021/10/19 03:28:33;;;;;;;;;12.50;12.50;;;;;16.79;79.06;100794.00;5017659;28;45407;-79
2021/10/19 03:30:58;;;;;;;;;12.25;10.25;;;;;16.81;79.19;100791.19;5017889;28;45927;-79
2021/10/19 03:33:24;;;;;;;;;11.00;11.00;;;;;16.80;78.69;100792.16;5017578;28;45322;-79
2021/10/19 03:35:49;;;;;;;;;12.00;10.75;;;;;16.82;78.90;100788.38;5017439;28;45323;-79
2021/10/19 03:38:14;;;;;;;;;9.00;9.00;;;;;16.80;78.71;100798.41;5017818;28;45228;-79
2021/10/19 03:40:40;;;;;;;;;10.75;10.75;;;;;16.82;78.92;100801.81;5017721;28;45281;-79
2021/10/19 03:43:06;;;;;;;;;12.50;10.00;;;;;16.83;78.90;100803.53;5017284;28;45213;-79
2021/10/19 03:45:31;;;;;;;;;12.00;9.00;;;;;16.82;78.48;100809.88;5017353;28;45248;-79
2021/10/19 03:47:57;;;;;;;;;12.25;10.00;;;;;16.83;79.02;100802.66;5017551;28;45180;-79
2021/10/19 03:50:22;;;;;;;;;10.25;10.25;;;;;16.83;79.09;100803.53;5017214;28;45276;-79
2021/10/19 03:52:48;;;;;;;;;9.00;8.25;;;;;16.82;78.58;100796.44;5017273;28;45200;-79
2021/10/19 03:55:13;;;;;;;;;11.25;10.25;;;;;16.84;79.04;100796.31;5017414;28;45216;-79
2021/10/19 03:57:39;;;;;;;;;9.25;9.25;;;;;16.84;78.96;100799.84;5017642;28;45172;-79
2021/10/19 04:00:10;;;;;;;;;10.50;10.25;;;;;16.85;78.62;100798.88;5017260;28;47127;-79
2021/10/19 04:02:35;;;;;;;;;10.50;8.75;;;;;16.86;79.01;100800.59;5016953;28;45273;-79
2021/10/19 04:05:00;;;;;;;;;8.25;7.00;;;;;16.87;79.03;100802.31;5017106;28;45170;-79
2021/10/19 04:07:26;;;;;;;;;6.75;6.25;;;;;16.88;78.47;100804.03;5017505;28;45164;-79
2021/10/19 04:09:51;;;;;;;;;7.00;7.00;;;;;16.88;78.38;100803.19;5016805;28;46146;-79
2021/10/19 04:12:16;;;;;;;;;11.25;11.25;;;;;16.85;78.26;100804.25;5017162;28;45348;-79
2021/10/19 04:14:42;;;;;;;;;13.50;10.25;;;;;16.88;78.44;100797.84;5017589;28;45205;-79
2021/10/19 04:17:07;;;;;;;;;12.50;9.50;;;;;16.87;78.37;100802.31;5017157;28;45168;-79
2021/10/19 04:19:32;;;;;;;;;8.50;8.50;;;;;16.87;78.18;100821.13;5017110;28;45153;-79
2021/10/19 04:21:58;;;;;;;;;10.25;8.00;;;;;16.86;78.06;100814.03;5016767;28;45307;-79
2021/10/19 04:24:23;;;;;;;;;12.25;9.75;;;;;16.81;77.98;100805.47;5016061;28;45196;-79
2021/10/19 04:26:48;;;;;;;;;12.25;11.00;;;;;16.80;78.26;100802.91;5016548;28;45163;-79
2021/10/19 04:29:14;;;;;;;;;9.00;9.00;;;;;16.78;78.38;100797.66;5016641;28;46037;-79
2021/10/19 04:31:39;;;;;;;;;10.00;10.00;;;;;16.78;78.25;100808.41;5015934;28;45208;-79
2021/10/19 04:34:06;;;;;;;;;12.00;10.25;;;;;16.77;78.13;100804.00;5016067;28;45339;-79
2021/10/19 04:36:32;;;;;;;;;12.00;9.00;;;;;16.76;78.54;100793.38;5017093;28;45288;-80
2021/10/19 04:38:58;;;;;;;;;8.25;8.00;;;;;16.78;78.28;100800.34;5016069;28;46330;-79
2021/10/19 04:41:23;;;;;;;;;12.00;8.50;;;;;16.78;78.41;100803.03;5016880;28;45134;-79
2021/10/19 04:43:49;;;;;;;;;10.25;7.75;;;;;16.81;78.40;100804.63;5016970;28;45615;-79
2021/10/19 04:46:14;;;;;;;;;8.25;7.75;;;;;16.81;78.58;100805.47;5017134;28;45240;-79
2021/10/19 04:48:40;;;;;;;;;9.00;9.00;;;;;16.85;78.20;100806.09;5016536;28;46045;-79
2021/10/19 04:51:05;;;;;;;;;9.00;7.75;;;;;16.85;77.94;100803.41;5016759;28;45270;-79
2021/10/19 04:53:31;;;;;;;;;11.25;8.75;;;;;16.87;77.95;100807.69;5016758;28;45203;-79
2021/10/19 04:55:57;;;;;;;;;7.75;7.75;;;;;16.88;77.76;100813.94;5016265;28;45655;-80
2021/10/19 04:58:23;;;;;;;;;8.25;7.00;;;;;16.89;77.65;100813.81;5016670;28;46158;-79
2021/10/19 05:00:49;;;;;;;;;11.50;8.50;;;;;16.90;77.81;100822.72;5016769;28;45153;-79
2021/10/19 05:03:16;;;;;;;;;11.75;9.75;;;;;16.90;77.53;100820.91;5019213;28;45160;-80
2021/10/19 05:05:41;;;;;;;;;11.00;10.00;;;;;16.87;77.80;100818.44;5020319;28;45184;-79
2021/10/19 05:08:07;;;;;;;;;10.25;7.75;;;;;16.87;78.17;100815.75;5019738;28;45068;-79
2021/10/19 05:10:32;;;;;;;;;9.25;9.00;;;;;16.87;77.75;100814.88;5019798;28;45255;-79
2021/10/19 05:12:58;;;;;;;;;8.75;6.50;;;;;16.93;77.53;100829.69;5019805;28;45443;-79
2021/10/19 05:15:24;;;;;;;;;6.25;5.00;;;;;16.92;77.77;100818.09;5019643;28;45189;-79
2021/10/19 05:17:50;;;;;;;;;10.75;8.50;;;;;16.91;77.83;100822.59;5019666;28;46508;-79
2021/10/19 05:20:15;;;;;;;;;8.50;8.00;;;;;16.91;77.53;100825.28;5019824;28;45301;-79
2021/10/19 05:22:40;;;;;;;;;10.25;8.75;;;;;16.91;77.64;100824.44;5019614;28;45267;-79
2021/10/19 05:25:06;;;;;;;;;9.00;7.00;;;;;16.88;77.56;100828.22;5019613;28;45125;-79
2021/10/19 05:27:32;;;;;;;;;8.00;7.00;;;;;16.87;77.64;100833.69;5019462;28;46079;-79
2021/10/19 05:29:57;;;;;;;;;8.50;8.00;;;;;16.86;77.66;100829.28;5019576;28;45276;-79
2021/10/19 05:32:22;;;;;;;;;9.25;7.75;;;;;16.83;77.17;100835.75;5019238;28;45197;-79
2021/10/19 05:34:47;;;;;;;;;9.25;8.75;;;;;16.78;77.29;100827.19;5019598;28;45231;-79
2021/10/19 05:37:13;;;;;;;;;12.25;11.00;;;;;16.76;77.42;100831.84;5017757;28;46950;-79
2021/10/19 05:39:41;;;;;;;;;12.25;11.75;;;;;16.73;77.33;100832.06;5019308;28;45328;-78
2021/10/19 05:42:06;;;;;;;;;9.75;9.50;;;;;16.66;77.69;100826.31;5018965;28;45168;-79
2021/10/19 05:44:32;;;;;;;;;11.25;10.75;;;;;16.67;77.34;100829.84;5019308;28;45238;-79
2021/10/19 05:46:57;;;;;;;;;13.00;10.00;;;;;16.63;77.29;100829.25;5018967;28;46703;-79
2021/10/19 05:49:23;;;;;;;;;9.50;9.50;;;;;16.62;77.34;100837.41;5019307;28;45210;-78
2021/10/19 05:51:51;;;;;;;;;10.00;10.00;;;;;16.54;77.98;100824.56;5018018;28;45316;-78
2021/10/19 05:54:16;;;;;;;;;10.25;10.25;;;;;16.52;77.56;100823.84;5018713;28;45131;-79
2021/10/19 05:56:42;;;;;;;;;7.75;7.50;;;;;16.52;77.55;100834.56;5018039;28;45151;-79
2021/10/19 05:59:08;;;;;;;;;10.50;9.00;;;;;16.46;77.92;100826.97;5019142;28;45519;-79
2021/10/19 06:01:33;;;;;;;;;11.00;10.75;;;;;16.46;77.91;100829.66;5018988;28;45311;-79
2021/10/19 06:03:58;;;;;;;;;11.75;10.50;;;;;16.43;78.33;100837.94;5018512;28;45319;-79
2021/10/19 06:06:23;;;;;;;;;12.50;11.25;;;;;16.41;78.11;100826.47;5018726;28;45861;-79
2021/10/19 06:08:51;;;;;;;;;11.25;9.50;;;;;16.42;78.52;100841.59;5018465;28;45197;-80
2021/10/19 06:11:17;;;;;;;;;10.75;10.75;;;;;16.36;78.33;100829.47;5018863;28;45194;-79
2021/10/19 06:13:43;;;;;;;;;11.75;10.75;;;;;16.33;78.30;100827.91;5017508;28;45160;-80
2021/10/19 06:16:08;;;;;;;;;11.25;11.00;;;;;16.38;78.11;100835.63;4998914;28;48624;-80
2021/10/19 06:18:34;;;;;;;;;11.50;11.50;;;;;16.34;78.15;100840.34;5010768;28;45262;-80
2021/10/19 06:20:59;;;;;;;;;13.75;11.00;;;;;16.34;78.19;100836.81;5017725;28;45284;-80
2021/10/19 06:23:24;;;;;;;;;11.25;10.25;;;;;16.28;78.39;100829.22;5016581;28;45360;-80
2021/10/19 06:25:50;;;;;;;;;13.50;9.50;;;;;16.31;78.38;100850.47;5017503;28;45242;-80
2021/10/19 06:28:15;;;;;;;;;12.75;11.00;;;;;16.32;78.21;100852.19;5018183;28;45174;-80
2021/10/19 06:30:40;;;;;;;;;12.00;9.50;;;;;16.29;77.81;100845.22;5017927;28;45267;-79
2021/10/19 06:33:06;;;;;;;;;11.75;10.75;;;;;16.30;78.12;100852.25;5018141;28;45185;-79
2021/10/19 06:35:31;;;;;;;;;11.50;9.50;;;;;16.30;78.00;100849.59;5016045;28;45643;-79
2021/10/19 06:37:56;;;;;;;;;11.75;10.25;;;;;16.30;77.35;100846.06;5016103;28;45402;-79
2021/10/19 06:40:22;;;;;;;;;10.75;9.25;;;;;16.31;77.94;100854.00;5017874;28;45168;-79
2021/10/19 06:42:47;;;;;;;;;11.25;10.00;;;;;16.31;77.65;100851.31;5000500;28;45273;-80
2021/10/19 06:45:13;;;;;;;;;9.75;9.75;;;;;16.30;77.64;100846.91;5016361;28;48240;-80
2021/10/19 06:47:39;;;;;;;;;10.25;8.75;;;;;16.30;77.63;100848.75;5018191;28;45131;-80
2021/10/19 06:50:06;;;;;;;;;13.75;11.25;;;;;16.30;77.40;100848.75;5016552;28;45154;-79
2021/10/19 06:52:32;;;;;;;;;11.00;9.50;;;;;16.31;77.75;100853.16;5018281;28;45246;-80
2021/10/19 06:54:58;;;;;;;;;14.50;13.50;;;;;16.31;77.11;100854.00;5016319;28;45192;-78
2021/10/19 06:57:24;;;;;;;;;12.25;11.25;;;;;16.33;77.37;100851.19;5016648;28;45168;-79
2021/10/19 06:59:49;;;;;;;;;12.75;11.25;;;;;16.36;77.29;100848.28;5016511;28;45266;-79
2021/10/19 07:02:14;;;;;;;;;8.50;7.50;;;;;16.44;77.56;100864.66;5016298;28;45414;-79
2021/10/19 07:04:40;;;;;;;;;14.50;11.75;;;;;16.49;77.45;100861.63;5016686;28;46173;-78
2021/10/19 07:07:05;;;;;;;;;11.00;11.00;;;;;16.56;76.76;100863.75;4979732;28;45762;-78
2021/10/19 07:09:31;;;;;;;;;10.25;10.25;;;;;16.63;77.15;100864.16;5016657;28;45148;-78
2021/10/19 07:11:58;;;;;;;;;12.25;12.00;;;;;16.69;76.74;100862.81;5016619;28;45252;-77
2021/10/19 07:14:23;;;;;;;;;12.50;11.75;;;;;16.70;76.38;100854.66;5017000;28;45946;-87
2021/10/19 07:16:49;;;;;;;;;11.75;11.75;;;;;16.71;76.56;100856.34;5015505;28;45347;-85
2021/10/19 07:19:14;;;;;;;;;12.75;11.25;;;;;16.83;76.15;100870.66;5017846;28;45303;-86
2021/10/19 07:21:39;;;;;;;;;8.50;8.50;;;;;16.88;76.25;100871.19;5017527;28;45141;-85
2021/10/19 07:24:05;;;;;;;;;11.25;10.00;;;;;16.91;76.36;100868.25;5017166;28;45240;-86
2021/10/19 07:26:31;;;;;;;;;11.00;7.00;;;;;16.92;75.71;100869.13;5016443;28;45196;-86
2021/10/19 07:28:57;;;;;;;;;15.50;11.25;;;;;16.92;75.79;100866.44;5017513;28;45229;-85
2021/10/19 07:31:23;;;;;;;;;10.25;9.00;;;;;16.96;75.65;100867.94;5017154;28;45279;-85
2021/10/19 07:33:49;;;;;;;;;10.75;10.75;;;;;16.99;75.82;100873.06;5016786;28;45304;-86
2021/10/19 07:36:14;;;;;;;;;9.75;8.75;;;;;16.97;75.21;100877.66;5016906;28;45644;-85
2021/10/19 07:38:39;;;;;;;;;13.25;10.75;;;;;16.95;75.42;100874.25;5015896;28;45137;-85
2021/10/19 07:41:05;;;;;;;;;11.00;9.75;;;;;16.95;75.26;100871.56;5017508;28;45264;-85
2021/10/19 07:43:30;;;;;;;;;12.75;12.75;;;;;16.89;74.90;100870.22;5017091;28;45845;-85
2021/10/19 07:45:55;;;;;;;;;14.50;11.75;;;;;16.89;75.16;100874.75;5016614;28;45367;-85
2021/10/19 07:48:21;;;;;;;;;11.00;9.50;;;;;16.86;75.25;100873.13;5016769;28;45173;-85
2021/10/19 07:50:49;;;;;;;;;14.75;11.00;;;;;16.79;75.93;100863.81;5016763;28;45256;-84
2021/10/19 07:53:16;;;;;;;;;16.25;12.75;;;;;16.90;75.32;100876.44;4999221;28;47457;-85
2021/10/19 07:55:43;;;;;;;;;10.00;9.25;;;;;16.94;75.23;100885.13;5016315;28;45239;-84
2021/10/19 07:58:09;;;;;;;;;12.25;9.25;;;;;16.94;74.99;100882.44;5016642;28;45232;-85
2021/10/19 08:00:34;;;;;;;;;12.25;10.75;;;;;16.93;75.36;100875.34;5016618;28;45192;-85
2021/10/19 08:03:00;;;;;;;;;11.75;9.25;;;;;16.88;75.69;100879.25;5016627;28;46447;-84
2021/10/19 08:05:26;;;;;;;;;15.25;13.50;;;;;16.88;75.63;100878.41;5016102;28;45232;-84
2021/10/19 08:08:05;;;;;;;;;12.25;11.25;;;;;16.90;75.51;100874.63;5017104;28;45214;-85
2021/10/19 08:10:30;;;;;;;;;13.75;10.75;;;;;16.96;75.21;100880.47;5017137;28;45212;-88
2021/10/19 08:12:55;;;;;;;;;13.25;11.25;;;;;16.99;74.72;100885.66;4997203;28;47164;-86
2021/10/19 08:15:20;;;;;;;;;11.00;10.00;;;;;17.03;75.42;100882.59;5016022;28;45255;-86
2021/10/19 08:17:46;;;;;;;;;12.50;11.75;;;;;17.15;74.84;100896.06;5015219;28;45205;-85
2021/10/19 08:20:12;;;;;;;;;12.00;10.25;;;;;17.20;75.21;100888.47;5016676;28;45259;-85
2021/10/19 08:22:38;;;;;;;;;13.00;11.75;;;;;17.23;74.92;100901.69;4998609;28;47502;-85
2021/10/19 08:25:06;;;;;;;;;9.25;9.25;;;;;17.21;74.28;100898.25;5016820;28;45070;-85
2021/10/19 08:27:36;;;;;;;;;14.25;11.75;;;;;17.18;74.20;100902.03;5016864;28;45268;-85
2021/10/19 08:30:02;;;;;;;;;12.50;12.00;;;;;17.18;74.74;100904.72;5016886;28;45062;-85
2021/10/19 08:32:27;;;;;;;;;11.75;11.00;;;;;17.21;74.63;100912.53;5016668;28;45165;-85
2021/10/19 08:34:52;;;;;;;;;13.00;12.25;;;;;17.23;74.94;100910.59;5016817;28;45164;-86
2021/10/19 08:37:18;;;;;;;;;12.75;12.75;;;;;17.24;74.70;100908.75;5017427;28;45298;-86
2021/10/19 08:39:43;;;;;;;;;12.25;10.25;;;;;17.24;75.10;100915.00;5013517;28;45235;-85
2021/10/19 08:42:09;;;;;;;;;13.25;11.00;;;;;17.23;74.49;100899.84;5025140;28;45869;-86
2021/10/19 08:44:34;;;;;;;;;16.50;12.25;;;;;17.36;74.55;100910.50;5021996;28;46004;-87
2021/10/19 08:47:01;;;;;;;;;10.00;9.75;;;;;17.37;74.82;100909.53;5020361;28;45339;-85
2021/10/19 08:49:27;;;;;;;;;10.75;10.75;;;;;17.39;74.97;100914.78;5020891;28;45333;-85
2021/10/19 08:51:52;;;;;;;;;13.25;11.75;;;;;17.38;74.76;100897.78;5018697;28;45571;-85
2021/10/19 08:54:18;;;;;;;;;11.75;11.50;;;;;17.37;75.08;100904.16;5019011;28;45236;-85
2021/10/19 08:56:43;;;;;;;;;11.50;10.00;;;;;17.43;74.71;100917.09;5018816;28;45696;-85
2021/10/19 08:59:11;;;;;;;;;14.00;9.75;;;;;17.41;74.83;100916.38;5019297;28;45232;-85
2021/10/19 09:01:40;;;;;;;;;12.25;10.00;;;;;17.41;74.44;100910.13;5019083;28;46968;-84
2021/10/19 09:04:15;;;;;;;;;16.00;10.25;;;;;17.41;74.75;100900.25;5019028;28;45263;-84
2021/10/19 09:06:41;;;;;;;;;12.75;11.25;;;;;17.46;75.07;100910.63;5019701;28;45217;-84
2021/10/19 09:09:09;;;;;;;;;11.50;9.50;;;;;17.46;74.63;100905.25;5019547;28;45335;-85
2021/10/19 09:11:38;;;;;;;;;14.75;12.50;;;;;17.45;74.96;100908.91;5017760;28;46351;-84
2021/10/19 09:14:04;;;;;;;;;11.00;9.25;;;;;17.45;74.41;100910.75;5018791;28;45524;-84
2021/10/19 09:16:38;;;;;;;;;10.00;9.75;;;;;17.43;74.47;100914.41;5017714;28;45360;-85
2021/10/19 09:19:04;;;;;;;;;13.50;10.25;;;;;17.39;74.71;100918.31;5012304;28;45576;-84
2021/10/19 09:21:30;;;;;;;;;11.50;10.50;;;;;17.36;74.98;100918.56;5018789;28;45483;-84
2021/10/19 09:24:14;;;;;;;;;15.00;12.25;;;;;17.36;74.77;100910.50;4997673;28;45253;-85
2021/10/19 09:26:51;;;;;;;;;8.00;8.00;;;;;17.35;74.69;100922.22;5003868;28;45331;-85
2021/10/19 09:29:17;;;;;;;;;12.00;9.75;;;;;17.39;74.74;100920.16;5019389;28;45256;-84
2021/10/19 09:31:42;;;;;;;;;13.50;8.75;;;;;17.36;74.92;100909.66;5018578;28;45862;-85
2021/10/19 09:34:12;;;;;;;;;10.75;10.75;;;;;17.42;74.89;100917.22;5019113;28;45175;-84
2021/10/19 09:36:38;;;;;;;;;10.50;10.50;;;;;17.40;74.44;100916.47;5019208;28;45226;-84
2021/10/19 09:39:04;;;;;;;;;11.00;8.25;;;;;17.49;75.00;100925.66;5017708;28;45453;-85
2021/10/19 09:41:29;;;;;;;;;9.75;9.75;;;;;17.62;74.32;100928.25;5017907;28;45512;-84
2021/10/19 09:43:54;;;;;;;;;12.25;10.50;;;;;17.83;73.72;100923.84;5018739;28;45302;-85
2021/10/19 09:46:23;;;;;;;;;11.00;8.25;;;;;17.90;73.63;100925.09;5018410;28;45303;-84
2021/10/19 09:48:50;;;;;;;;;9.00;9.00;;;;;18.03;73.18;100927.63;5018115;28;45175;-84
2021/10/19 09:51:15;;;;;;;;;11.50;10.00;;;;;18.27;72.42;100923.91;5018632;28;45536;-85
2021/10/19 09:53:42;;;;;;;;;9.50;9.25;;;;;18.40;71.89;100921.94;5016645;28;45424;-84
2021/10/19 09:56:08;;;;;;;;;10.00;10.00;;;;;18.55;71.42;100925.19;5019060;28;45207;-84
2021/10/19 09:58:35;;;;;;;;;9.25;8.25;;;;;18.76;70.61;100925.22;5017254;28;45149;-85
2021/10/19 10:01:03;;;;;;;;;11.75;10.25;;;;;19.18;70.86;100927.13;5009894;28;46914;-85
2021/10/19 10:03:29;;;;;;;;;9.00;8.25;;;;;19.60;68.62;100916.28;5016973;28;45232;-84
2021/10/19 10:05:55;;;;;;;;;7.75;7.75;;;;;19.86;69.25;100921.25;5018598;28;45230;-83
2021/10/19 10:08:23;;;;;;;;;9.00;7.75;;;;;20.11;66.04;100924.44;5017786;28;45226;-84
2021/10/19 10:10:53;;;;;;;;;9.75;8.00;;;;;20.35;68.17;100930.34;5018432;28;45253;-83
2021/10/19 10:13:19;;;;;;;;;10.00;8.00;;;;;20.77;67.52;100934.66;5018428;28;45482;-84
2021/10/19 10:15:44;;;;;;;;;10.75;10.00;;;;;21.20;65.17;100922.53;5016378;28;45294;-84
2021/10/19 10:18:12;;;;;;;;;10.00;10.00;;;;;21.57;64.92;100914.66;5018347;28;45140;-85
2021/10/19 10:20:42;;;;;;;;;9.25;9.25;;;;;22.03;64.38;100911.03;5017030;28;45950;-85
2021/10/19 10:23:24;;;;;;;;;11.00;11.00;;;;;22.58;61.47;100904.69;5017496;28;45261;-84
2021/10/19 10:25:57;;;;;;;;;13.75;10.50;;;;;22.86;61.30;100896.47;5010636;28;45212;-84
2021/10/19 10:28:32;;;;;;;;;8.00;7.25;;;;;23.19;61.37;100899.44;5016442;28;45589;-84
2021/10/19 10:31:00;;;;;;;;;9.00;9.00;;;;;23.69;60.73;100894.31;5017382;28;46560;-84
2021/10/19 10:33:38;;;;;;;;;10.00;10.00;;;;;24.24;59.24;100895.69;5017996;28;45149;-84
2021/10/19 10:36:09;;;;;;;;;12.25;12.25;;;;;24.64;58.48;100894.97;5017724;28;45348;-84
2021/10/19 10:38:35;;;;;;;;;11.50;10.50;;;;;24.97;56.74;100889.50;5017895;28;45385;-85
2021/10/19 10:41:13;;;;;;;;;10.75;8.25;;;;;25.31;56.31;100887.56;5017650;28;45901;-84
2021/10/19 10:43:38;;;;;;;;;9.50;9.50;;;;;25.52;54.66;100884.31;5016373;28;45715;-84
2021/10/19 10:46:11;;;;;;;;;8.75;8.50;;;;;25.63;53.91;100880.38;5017210;28;45151;-86
2021/10/19 10:48:36;;;;;;;;;10.75;9.00;;;;;25.64;53.28;100873.91;5016914;28;45243;-85
2021/10/19 10:51:03;;;;;;;;;10.75;10.50;;;;;25.69;53.69;100870.66;5016165;28;46033;-85
2021/10/19 10:53:37;;;;;;;;;11.00;10.00;;;;;25.78;51.83;100875.91;5020375;28;45509;-85
2021/10/19 10:56:04;;;;;;;;;10.50;8.50;;;;;25.77;52.11;100866.03;5020977;28;45183;-80
2021/10/19 10:58:32;;;;;;;;;9.00;9.00;;;;;25.77;51.46;100857.84;5017379;28;45193;-79
2021/10/19 11:00:58;;;;;;;;;9.00;8.00;;;;;25.75;51.57;100862.63;5016985;28;46160;-81
2021/10/19 11:03:23;;;;;;;;;10.00;9.00;;;;;25.73;49.58;100863.84;5017538;28;45306;-80
2021/10/19 11:05:58;;;;;;;;;10.50;10.00;;;;;25.71;50.83;100854.97;5017906;28;45211;-82
2021/10/19 11:08:33;;;;;;;;;11.75;10.00;;;;;25.76;50.48;100849.84;5017450;28;45201;-79
2021/10/19 11:11:13;;;;;;;;;12.00;11.00;;;;;25.83;49.80;100845.41;5006484;28;46318;-81